Flight Track Log - Related Links

Times and Time Zones

All times are in EDT time to prevent confusion due to time zone crossing. See the UPS1121 flight status page for this flight to view local times or setup timezone preferences in your user account.

Time Position Orientation Groundspeed Altitude Reporting Facility
EDT Latitude Longitude Course Direction KTS MPH feet Rate Location/Type
Mon 09:59:53 PM 41.9417 -72.6997 42° Northeast 140 161 1,000  Level Boston Center
Mon 10:01:00 PM 41.9792 -72.6550 42° Northeast 224 258 4,400 2,613 Climbing Boston Center
Mon 10:06:21 PM 41.6390 -72.1990 42° Northeast 397 457 17,900 2,453 Climbing FlightAware ADS-B
Mon 10:07:02 PM 41.5700 -72.2030 182° South 381 438 19,200 1,263 Climbing FlightAware ADS-B
Mon 10:07:37 PM 41.5170 -72.2350 204° Southwest 379 436 19,500 505 Climbing FlightAware ADS-B
Mon 10:08:37 PM 41.4300 -72.3290 219° Southwest 374 430 20,000 278 Climbing FlightAware ADS-B
Mon 10:09:25 PM 41.3720 -72.3830 215° Southwest 374 430 20,000  Level FlightAware ADS-B
Mon 10:10:02 PM 41.3180 -72.4250 210° Southwest 375 432 20,000  Level FlightAware ADS-B
Mon 10:10:40 PM 41.2710 -72.4660 213° Southwest 375 432 20,000  Level FlightAware ADS-B
Mon 10:11:27 PM 41.2140 -72.5180 214° Southwest 375 432 20,000  Level FlightAware ADS-B
Mon 10:12:08 PM 41.1210 -72.5830 208° Southwest 373 429 20,000  Level FlightAware ADS-B
Mon 10:12:53 PM 41.0460 -72.6420 211° Southwest 371 427 20,000  Level FlightAware ADS-B
Mon 10:13:29 PM 40.9910 -72.6880 212° Southwest 387 445 20,000  Level FlightAware ADS-B
Mon 10:14:16 PM 40.9230 -72.7420 211° Southwest 376 433 20,000  Level FlightAware ADS-B
Mon 10:14:55 PM 40.8670 -72.7860 211° Southwest 378 435 20,000  Level FlightAware ADS-B
Mon 10:15:41 PM 40.7920 -72.8460 211° Southwest 380 437 20,000  Level FlightAware ADS-B
Mon 10:15:58 PM 40.7664 -72.8663 211° Southwest 380 437 20,000  Level FlightAware ADS-B
Mon 10:16:29 PM 40.7203 -72.9027 211° Southwest 385 443 20,000  Level FlightAware ADS-B
Mon 10:16:59 PM 40.6744 -72.9390 211° Southwest 386 444 20,000  Level FlightAware ADS-B
Mon 10:17:31 PM 40.6243 -72.9786 211° Southwest 386 444 20,000  Level FlightAware ADS-B
Mon 10:18:06 PM 40.5713 -73.0204 211° Southwest 387 445 20,000  Level FlightAware ADS-B
Mon 10:18:40 PM 40.5188 -73.0619 211° Southwest 388 447 20,000  Level FlightAware ADS-B
Mon 10:19:11 PM 40.4711 -73.0997 211° Southwest 388 447 20,000  Level FlightAware ADS-B
Mon 10:19:47 PM 40.4140 -73.1445 211° Southwest 387 445 20,000  Level FlightAware ADS-B
Mon 10:20:17 PM 40.3693 -73.1796 211° Southwest 388 447 20,000  Level FlightAware ADS-B
Mon 10:20:47 PM 40.3229 -73.2161 211° Southwest 387 445 20,000  Level FlightAware ADS-B
Mon 10:21:20 PM 40.2728 -73.2552 211° Southwest 385 443 20,000  Level FlightAware ADS-B
Mon 10:21:50 PM 40.2261 -73.2916 211° Southwest 385 443 20,000  Level FlightAware ADS-B
Mon 10:22:21 PM 40.1796 -73.3278 211° Southwest 384 442 20,000  Level FlightAware ADS-B
Mon 10:22:53 PM 40.1296 -73.3666 211° Southwest 382 440 20,000  Level FlightAware ADS-B
Mon 10:23:25 PM 40.0809 -73.4044 211° Southwest 381 438 20,000  Level FlightAware ADS-B
Mon 10:24:09 PM 40.0144 -73.4559 211° Southwest 381 438 20,000  Level FlightAware ADS-B
Mon 10:24:40 PM 39.9684 -73.4916 211° Southwest 380 437 20,000  Level FlightAware ADS-B
Mon 10:25:09 PM 39.9246 -73.5259 211° Southwest 378 435 20,000  Level FlightAware ADS-B
Mon 10:25:17 PM 39.9130 -73.5368 216° Southwest 377 434 20,000  Level FlightAware ADS-B
Mon 10:25:31 PM 39.8946 -73.5580 221° Southwest 375 432 20,000  Level FlightAware ADS-B
Mon 10:26:04 PM 39.8570 -73.6145 229° Southwest 374 430 20,000  Level FlightAware ADS-B
Mon 10:26:34 PM 39.8238 -73.6680 231° Southwest 375 432 20,000  Level FlightAware ADS-B
Mon 10:27:05 PM 39.7906 -73.7208 231° Southwest 374 430 20,000  Level FlightAware ADS-B
Mon 10:27:40 PM 39.7518 -73.7823 231° Southwest 374 430 20,000  Level FlightAware ADS-B
Mon 10:28:11 PM 39.7178 -73.8359 230° Southwest 370 426 20,000 -393 Level FlightAware ADS-B
Mon 10:28:41 PM 39.6860 -73.8861 231° Southwest 351 404 19,600 -1,452 Descending FlightAware ADS-B
Mon 10:29:13 PM 39.6532 -73.9379 231° Southwest 344 396 18,500 -2,095 Descending FlightAware ADS-B
Mon 10:29:44 PM 39.6218 -73.9874 231° Southwest 339 390 17,400 -2,129 Descending FlightAware ADS-B
Mon 10:30:15 PM 39.5917 -74.0348 231° Southwest 334 384 16,300 -2,066 Descending FlightAware ADS-B
Mon 10:30:45 PM 39.5617 -74.0818 230° Southwest 333 383 15,300 -2,000 Descending FlightAware ADS-B
Mon 10:31:06 PM 39.5414 -74.1141 231° Southwest 329 379 14,600 -2,129 Descending FlightAware ADS-B
Mon 10:31:16 PM 39.5338 -74.1309 240° Southwest 326 375 14,200 -1,600 Descending FlightAware ADS-B
Mon 10:31:21 PM 39.5310 -74.1393 247° West 325 374 14,200 -706 Level FlightAware ADS-B
Mon 10:31:33 PM 39.5265 -74.1638 257° West 324 373 14,000 -255 Descending FlightAware ADS-B
Mon 10:32:08 PM 39.5262 -74.2302 270° West 327 376 14,000 -91 Level FlightAware ADS-B
Mon 10:32:39 PM 39.5274 -74.2918 271° West 333 383 13,900 -800 Descending FlightAware ADS-B
Mon 10:33:08 PM 39.5286 -74.3499 272° West 333 383 13,200 -1,729 Descending FlightAware ADS-B
Mon 10:33:38 PM 39.5296 -74.4095 271° West 326 375 12,200 -1,672 Descending FlightAware ADS-B
Mon 10:34:09 PM 39.5306 -74.4687 271° West 313 360 11,500 -1,279 Descending FlightAware ADS-B
Mon 10:34:39 PM 39.5314 -74.5233 271° West 292 336 10,900 -1,258 Descending FlightAware ADS-B
Mon 10:35:11 PM 39.5320 -74.5788 271° West 276 318 10,200 -1,469 Descending FlightAware ADS-B
Mon 10:35:28 PM 39.5324 -74.6068 271° West 273 314 9,700 -1,636 Descending FlightAware ADS-B
Mon 10:35:44 PM 39.5330 -74.6332 272° West 272 313 9,300 -1,355 Descending FlightAware ADS-B
Mon 10:35:59 PM 39.5333 -74.6584 271° West 269 310 9,000 -621 Descending FlightAware ADS-B
Mon 10:36:13 PM 39.5337 -74.6805 271° West 264 304 9,000  Level FlightAware ADS-B
Mon 10:36:51 PM 39.5340 -74.7380 270° West 265 305 9,000  Level FlightAware ADS-B
Mon 10:37:22 PM 39.5390 -74.7890 277° West 267 307 9,000  Level FlightAware ADS-B
Mon 10:37:32 PM 39.5460 -74.8030 303° West 274 315 9,000  Level FlightAware ADS-B
Mon 10:37:47 PM 39.5580 -74.8210 311° West 273 314 9,000  Level FlightAware ADS-B
Mon 10:38:17 PM 39.5830 -74.8580 311° West 272 313 9,000 -400 Level FlightAware ADS-B
Mon 10:38:47 PM 39.6080 -74.8960 311° West 266 306 8,600 -900 Descending FlightAware ADS-B
Mon 10:38:57 PM 39.6160 -74.9070 313° West 267 307 8,400 -1,418 Descending FlightAware ADS-B
Mon 10:39:42 PM 39.6530 -74.9660 309° West 270 311 7,300 -1,520 Descending FlightAware ADS-B
Mon 10:40:12 PM 39.6770 -75.0040 309° West 273 314 6,500 -1,552 Descending FlightAware ADS-B
Mon 10:40:40 PM 39.7090 -75.0250 333° Northwest 264 304 5,800 -1,698 Descending FlightAware ADS-B
Mon 10:41:05 PM 39.7390 -75.0270 357° North 247 284 5,000 -1,811 Descending FlightAware ADS-B
Mon 10:41:33 PM 39.7729 -75.0191 10° North 252 290 4,200 -1,674 Descending FlightAware ADS-B
Mon 10:41:48 PM 39.7902 -75.0149 11° North 248 285 3,800 -1,600 Descending FlightAware ADS-B
Mon 10:42:03 PM 39.8000 -75.0038 41° Northeast 243 280 3,400 -1,355 Descending FlightAware ADS-B
Mon 10:42:19 PM 39.8243 -75.0064 355° North 235 270 3,100 -818 Descending FlightAware ADS-B
Mon 10:42:25 PM 39.8303 -75.0050 10° North 231 266 3,100  Level FlightAware ADS-B
Mon 10:42:28 PM 39.8335 -75.0046 North 229 264 3,100  Level FlightAware ADS-B
Mon 10:42:35 PM 39.8409 -75.0047 359° North 224 258 3,100 -286 Level FlightAware ADS-B
Mon 10:42:49 PM 39.8547 -75.0069 353° North 212 244 3,000 -207 Descending FlightAware ADS-B
Mon 10:43:04 PM 39.8687 -75.0098 351° North 201 231 3,000  Level FlightAware ADS-B
Mon 10:43:20 PM 39.8825 -75.0126 351° North 181 208 3,000  Level FlightAware ADS-B
Mon 10:43:30 PM 39.8904 -75.0142 351° North 175 201 3,000 -375 Level FlightAware ADS-B
Mon 10:43:36 PM 39.8949 -75.0159 344° North 173 199 2,900 -1,200 Descending FlightAware ADS-B
Mon 10:43:40 PM 39.8983 -75.0181 334° Northwest 170 196 2,800 -750 Descending FlightAware ADS-B
Mon 10:43:44 PM 39.9007 -75.0202 326° Northwest 169 194 2,800 -500 Level FlightAware ADS-B
Mon 10:43:52 PM 39.9052 -75.0252 320° Northwest 168 193 2,700 -750 Descending FlightAware ADS-B

Login

Don't have an account? Register now (free) for customized features, flight alerts, and more!